Time;durP1;ratioP1;P1;durP2;ratioP2;P2;SDS_P1;SDS_P2;PMS_P1;PMS_P2;Temp;Humidity;BMP_temperature;BMP_pressure;BME280_temperature;BME280_humidity;BME280_pressure;Samples;Min_cycle;Max_cycle;Signal;HPM_P1;HPM_P2
2023/05/10 04:06:15;;;;;;;0.90;0.90;;;12.90;99.90;;;;;;5027209;23;20493;-66
2023/05/10 04:08:41;;;;;;;0.43;0.43;;;12.90;99.90;;;;;;4978145;28;20458;-66
2023/05/10 04:11:11;;;;;;;0.57;0.57;;;12.90;99.90;;;;;;4960990;28;20179;-66
2023/05/10 04:13:37;;;;;;;0.80;0.80;;;12.90;99.90;;;;;;4977996;28;20182;-66
2023/05/10 04:16:03;;;;;;;0.50;0.50;;;12.90;99.90;;;;;;4978023;28;20501;-64
2023/05/10 04:18:30;;;;;;;1.00;1.00;;;12.90;99.90;;;;;;4978286;28;20450;-67
2023/05/10 04:20:56;;;;;;;0.87;0.87;;;12.90;99.90;;;;;;4978185;28;20486;-66
2023/05/10 04:23:21;;;;;;;0.97;0.77;;;12.90;99.90;;;;;;4977649;28;20486;-66
2023/05/10 04:25:47;;;;;;;0.63;0.63;;;12.90;99.90;;;;;;4977671;28;20195;-66
2023/05/10 04:28:12;;;;;;;0.83;0.70;;;12.90;99.90;;;;;;4978061;28;20590;-67
2023/05/10 04:30:38;;;;;;;1.13;1.00;;;13.00;99.90;;;;;;4977995;28;20203;-66
2023/05/10 04:33:04;;;;;;;0.90;0.60;;;13.00;99.90;;;;;;4977811;28;20642;-68
2023/05/10 04:35:29;;;;;;;0.70;0.70;;;13.10;99.90;;;;;;4978719;28;20273;-66
2023/05/10 04:37:56;;;;;;;0.67;0.67;;;13.10;99.90;;;;;;4980542;28;20294;-65
2023/05/10 04:40:21;;;;;;;0.60;0.60;;;13.10;99.90;;;;;;4980982;28;20194;-68
2023/05/10 04:42:47;;;;;;;4.57;0.90;;;13.10;99.90;;;;;;4977990;28;20950;-69
2023/05/10 04:45:14;;;;;;;0.93;0.93;;;13.10;99.90;;;;;;4978529;28;20206;-66
2023/05/10 04:47:40;;;;;;;1.00;0.83;;;13.10;99.90;;;;;;4977864;28;20183;-66
2023/05/10 04:50:07;;;;;;;0.80;0.80;;;13.20;99.90;;;;;;4977635;28;20473;-66
2023/05/10 04:52:32;;;;;;;0.70;0.70;;;13.20;99.90;;;;;;4977820;28;20646;-65
2023/05/10 04:54:58;;;;;;;1.00;1.00;;;13.20;99.90;;;;;;4976949;28;20447;-68
2023/05/10 04:57:23;;;;;;;0.90;0.90;;;13.20;99.90;;;;;;4977568;28;20196;-67
2023/05/10 04:59:49;;;;;;;1.00;1.00;;;13.30;99.90;;;;;;4983300;28;20180;-64
2023/05/10 05:02:14;;;;;;;1.57;1.47;;;13.30;99.90;;;;;;4982841;28;20203;-66
2023/05/10 05:04:40;;;;;;;0.70;0.60;;;13.30;99.90;;;;;;4980748;28;20209;-65
2023/05/10 05:07:06;;;;;;;1.07;1.07;;;13.30;99.90;;;;;;4981849;28;20677;-66
2023/05/10 05:09:34;;;;;;;1.20;0.90;;;13.40;99.90;;;;;;4982532;28;20195;-66
2023/05/10 05:12:00;;;;;;;1.10;1.00;;;13.40;99.90;;;;;;4981738;28;20234;-64
2023/05/10 05:14:25;;;;;;;1.40;0.80;;;13.50;99.90;;;;;;4978968;28;20401;-66
2023/05/10 05:16:52;;;;;;;2.77;1.67;;;13.60;99.90;;;;;;4977366;28;20199;-65
2023/05/10 05:19:18;;;;;;;1.00;1.00;;;13.70;99.90;;;;;;4977164;28;20172;-68
2023/05/10 05:21:43;;;;;;;1.57;1.57;;;13.80;99.90;;;;;;4977344;28;20410;-66
2023/05/10 05:24:10;;;;;;;1.23;0.90;;;13.90;99.90;;;;;;4984630;28;20201;-65
2023/05/10 05:26:36;;;;;;;0.93;0.83;;;14.00;99.90;;;;;;4980520;28;20308;-69
2023/05/10 05:29:02;;;;;;;1.47;1.37;;;14.10;99.90;;;;;;4980176;28;20431;-65
2023/05/10 05:31:28;;;;;;;1.00;0.90;;;14.20;99.90;;;;;;4959789;28;20426;-67
2023/05/10 05:33:54;;;;;;;1.00;1.00;;;14.20;99.90;;;;;;4958632;28;20958;-66
2023/05/10 05:36:19;;;;;;;0.80;0.80;;;14.30;99.90;;;;;;4976606;28;20427;-65
2023/05/10 05:38:45;;;;;;;0.97;0.87;;;14.40;99.90;;;;;;4976432;28;20208;-69
2023/05/10 05:41:11;;;;;;;0.93;0.93;;;14.40;99.90;;;;;;4976267;28;20176;-65
2023/05/10 05:43:36;;;;;;;2.10;0.70;;;14.50;99.90;;;;;;4976112;28;20180;-68
2023/05/10 05:46:02;;;;;;;0.90;0.90;;;14.60;99.90;;;;;;4989145;28;20203;-68
2023/05/10 05:48:30;;;;;;;1.53;1.43;;;14.60;99.90;;;;;;4958962;28;20177;-66
2023/05/10 05:50:59;;;;;;;0.97;0.97;;;14.80;99.90;;;;;;4981818;28;20208;-67
2023/05/10 05:53:24;;;;;;;0.87;0.87;;;14.90;99.90;;;;;;4975271;28;20407;-67
2023/05/10 05:55:57;;;;;;;0.77;0.77;;;15.00;99.90;;;;;;4975853;28;20419;-67
2023/05/10 05:58:24;;;;;;;0.90;0.90;;;15.10;99.90;;;;;;4975967;28;20459;-66
2023/05/10 06:00:51;;;;;;;0.60;0.60;;;15.20;99.90;;;;;;4975886;28;20433;-68
2023/05/10 06:03:17;;;;;;;0.67;0.67;;;15.20;99.90;;;;;;4975868;28;20500;-66
2023/05/10 06:05:43;;;;;;;1.90;0.70;;;15.20;99.90;;;;;;4975584;28;20453;-64
2023/05/10 06:08:09;;;;;;;1.70;0.70;;;15.30;99.90;;;;;;4975646;28;20884;-67
2023/05/10 06:10:35;;;;;;;1.90;0.93;;;15.30;99.90;;;;;;4975526;28;20216;-68
2023/05/10 06:13:01;;;;;;;0.80;0.80;;;15.20;99.90;;;;;;4958220;28;20497;-67
2023/05/10 06:15:27;;;;;;;0.70;0.63;;;15.30;99.90;;;;;;4975292;28;20533;-68
2023/05/10 06:17:52;;;;;;;0.60;0.60;;;15.30;99.90;;;;;;4975708;28;20197;-64
2023/05/10 06:20:18;;;;;;;0.50;0.50;;;15.30;99.90;;;;;;4975436;28;20479;-64
2023/05/10 06:22:44;;;;;;;2.60;1.20;;;15.30;99.90;;;;;;4975844;28;20179;-65
2023/05/10 06:25:10;;;;;;;0.60;0.60;;;15.30;99.90;;;;;;4975072;28;20194;-65
2023/05/10 06:27:35;;;;;;;1.10;1.00;;;15.30;99.90;;;;;;4975581;28;20174;-64
2023/05/10 06:30:02;;;;;;;1.17;1.17;;;15.30;99.90;;;;;;4975466;28;20476;-68
2023/05/10 06:32:28;;;;;;;0.83;0.83;;;15.40;99.90;;;;;;4975917;28;20510;-68
2023/05/10 06:34:53;;;;;;;0.90;0.90;;;15.30;99.90;;;;;;4975115;28;20485;-69
2023/05/10 06:37:19;;;;;;;1.43;1.10;;;15.30;99.90;;;;;;4975453;28;20206;-67
2023/05/10 06:39:44;;;;;;;0.87;0.87;;;15.30;99.90;;;;;;4975566;28;20212;-68
2023/05/10 06:42:10;;;;;;;0.80;0.80;;;15.30;99.90;;;;;;4975296;28;20177;-66
2023/05/10 06:44:36;;;;;;;1.17;0.70;;;15.40;99.90;;;;;;4974926;28;20691;-69
2023/05/10 06:47:01;;;;;;;0.80;0.80;;;15.40;99.90;;;;;;4990154;28;20183;-67
2023/05/10 06:49:27;;;;;;;0.70;0.70;;;15.40;99.90;;;;;;4975171;28;20647;-69
2023/05/10 06:51:53;;;;;;;0.77;0.77;;;15.40;99.90;;;;;;4975221;28;20178;-68
2023/05/10 06:54:19;;;;;;;0.50;0.50;;;15.40;99.90;;;;;;4974731;28;20529;-67
2023/05/10 06:56:44;;;;;;;0.60;0.60;;;15.40;99.90;;;;;;4975159;28;20489;-68
2023/05/10 06:59:10;;;;;;;1.20;0.77;;;15.60;99.90;;;;;;4975271;28;20185;-69
2023/05/10 07:01:35;;;;;;;1.03;0.93;;;15.60;99.90;;;;;;4974879;28;20659;-68
2023/05/10 07:04:02;;;;;;;1.37;1.37;;;15.70;99.90;;;;;;4974573;28;20268;-67
2023/05/10 07:06:28;;;;;;;0.93;0.90;;;15.70;99.90;;;;;;4975107;28;20482;-69
2023/05/10 07:08:54;;;;;;;1.43;1.17;;;15.80;99.90;;;;;;4975199;28;20264;-69
2023/05/10 07:11:20;;;;;;;0.90;0.90;;;15.80;99.90;;;;;;4974768;28;20442;-70
2023/05/10 07:13:46;;;;;;;0.77;0.63;;;15.90;99.90;;;;;;4974373;28;20179;-69
2023/05/10 07:16:11;;;;;;;0.90;0.90;;;16.00;99.90;;;;;;4974608;28;20197;-68
2023/05/10 07:18:37;;;;;;;1.10;0.83;;;16.00;99.90;;;;;;4989285;28;20442;-67
2023/05/10 07:21:03;;;;;;;1.20;1.03;;;16.00;99.90;;;;;;4989578;28;20588;-67
2023/05/10 07:23:29;;;;;;;0.60;0.60;;;15.90;99.90;;;;;;4956974;28;20587;-67
2023/05/10 07:25:57;;;;;;;1.90;1.10;;;15.90;99.90;;;;;;4974598;28;20189;-68
2023/05/10 07:28:24;;;;;;;0.83;0.83;;;16.00;99.90;;;;;;4974335;28;20386;-68
2023/05/10 07:30:49;;;;;;;1.70;1.60;;;16.10;99.90;;;;;;4974302;28;20721;-66
2023/05/10 07:33:15;;;;;;;1.27;1.17;;;16.20;99.90;;;;;;4974187;28;20402;-68
2023/05/10 07:35:42;;;;;;;0.70;0.70;;;16.30;99.90;;;;;;4974367;28;20699;-68
2023/05/10 07:38:07;;;;;;;0.77;0.77;;;16.50;99.90;;;;;;4973418;28;20590;-68
2023/05/10 07:40:33;;;;;;;0.93;0.93;;;16.70;99.90;;;;;;4956886;28;20831;-68
2023/05/10 07:43:01;;;;;;;0.80;0.80;;;16.80;99.90;;;;;;4957048;28;20567;-68
2023/05/10 07:45:27;;;;;;;1.10;0.70;;;17.00;99.90;;;;;;4974040;28;20797;-66
2023/05/10 07:47:52;;;;;;;0.87;0.87;;;17.10;99.90;;;;;;4974484;28;20466;-65
2023/05/10 07:50:18;;;;;;;0.70;0.70;;;17.30;99.90;;;;;;4957150;28;20180;-68
2023/05/10 07:52:43;;;;;;;0.70;0.70;;;17.40;99.90;;;;;;4974453;28;20525;-67
2023/05/10 07:55:09;;;;;;;0.80;0.80;;;17.60;99.90;;;;;;4974015;28;20259;-64
2023/05/10 07:57:35;;;;;;;0.93;0.80;;;17.80;99.90;;;;;;4973944;28;20210;-68
2023/05/10 08:00:01;;;;;;;0.63;0.63;;;17.90;99.90;;;;;;4974174;28;20411;-67
2023/05/10 08:02:27;;;;;;;0.80;0.80;;;18.00;99.90;;;;;;4974508;28;20226;-68
2023/05/10 08:04:52;;;;;;;0.97;0.97;;;18.10;99.90;;;;;;4973979;28;20436;-68
2023/05/10 08:07:18;;;;;;;2.60;1.80;;;18.20;99.90;;;;;;4956702;28;20199;-66
2023/05/10 08:09:43;;;;;;;0.93;0.73;;;18.10;99.90;;;;;;4974333;28;20172;-67
2023/05/10 08:12:09;;;;;;;0.93;0.90;;;18.00;99.90;;;;;;4974267;28;20701;-67
2023/05/10 08:14:36;;;;;;;0.50;0.50;;;18.10;99.90;;;;;;4973662;28;20550;-66
2023/05/10 08:17:03;;;;;;;0.60;0.60;;;18.00;99.90;;;;;;4973700;28;20211;-67
2023/05/10 08:19:28;;;;;;;0.70;0.70;;;18.00;99.90;;;;;;4974211;28;20766;-68
2023/05/10 08:21:55;;;;;;;1.57;1.30;;;17.80;99.90;;;;;;4983591;28;20432;-66
2023/05/10 08:24:21;;;;;;;0.90;0.90;;;17.70;99.90;;;;;;4973358;28;20205;-69
2023/05/10 08:26:47;;;;;;;0.73;0.73;;;17.60;99.90;;;;;;4973670;28;20470;-68
2023/05/10 08:29:13;;;;;;;0.67;0.67;;;17.40;99.90;;;;;;4973363;28;20438;-68
2023/05/10 08:31:39;;;;;;;0.67;0.60;;;17.30;99.90;;;;;;4974199;28;20389;-69
2023/05/10 08:34:05;;;;;;;0.70;0.70;;;17.30;99.90;;;;;;4973943;28;20412;-68
2023/05/10 08:36:31;;;;;;;0.50;0.43;;;17.30;99.90;;;;;;4977704;28;20196;-68
2023/05/10 08:38:57;;;;;;;0.70;0.70;;;17.20;99.90;;;;;;4977540;28;20226;-70
2023/05/10 08:41:25;;;;;;;0.70;0.70;;;17.20;99.90;;;;;;4977347;28;20410;-66
2023/05/10 08:43:52;;;;;;;0.97;0.97;;;17.20;99.90;;;;;;4976752;28;20457;-68
2023/05/10 08:46:19;;;;;;;0.70;0.70;;;17.20;99.90;;;;;;4977276;28;20764;-68
2023/05/10 08:48:46;;;;;;;0.50;0.50;;;17.30;99.90;;;;;;4977435;28;20406;-67
2023/05/10 08:51:18;;;;;;;0.40;0.40;;;17.30;99.90;;;;;;4959850;28;20414;-65
2023/05/10 08:53:45;;;;;;;0.50;0.50;;;17.30;99.90;;;;;;4976929;28;20515;-68
2023/05/10 08:56:10;;;;;;;0.60;0.40;;;17.40;99.90;;;;;;4977273;28;20774;-65
2023/05/10 08:58:37;;;;;;;0.40;0.40;;;17.50;99.90;;;;;;4977290;28;20447;-68
2023/05/10 09:01:04;;;;;;;0.40;0.40;;;17.50;99.90;;;;;;4977607;28;20172;-64
2023/05/10 09:03:31;;;;;;;0.60;0.60;;;17.50;99.90;;;;;;4976786;28;20921;-65
2023/05/10 09:05:57;;;;;;;0.60;0.60;;;17.40;99.90;;;;;;4990502;28;20857;-66
2023/05/10 09:08:25;;;;;;;0.50;0.50;;;17.40;99.90;;;;;;4976999;28;20387;-68
2023/05/10 09:10:51;;;;;;;2.00;0.73;;;17.50;99.90;;;;;;4976301;28;20183;-67
2023/05/10 09:13:19;;;;;;;0.60;0.60;;;17.70;99.90;;;;;;4976446;28;20749;-67
2023/05/10 09:15:45;;;;;;;0.40;0.40;;;17.80;99.90;;;;;;4977087;28;20428;-68
2023/05/10 09:18:12;;;;;;;0.80;0.80;;;18.10;99.90;;;;;;4976925;28;20501;-67
2023/05/10 09:20:37;;;;;;;0.53;0.53;;;18.50;99.90;;;;;;4976966;28;20412;-68
2023/05/10 09:23:03;;;;;;;0.43;0.43;;;18.80;99.90;;;;;;4976610;28;20396;-65
2023/05/10 09:25:28;;;;;;;0.43;0.43;;;19.20;99.90;;;;;;4976298;28;20191;-64
2023/05/10 09:27:55;;;;;;;0.50;0.50;;;19.60;99.90;;;;;;4976409;28;20187;-67
2023/05/10 09:30:28;;;;;;;0.50;0.50;;;19.90;99.90;;;;;;4959634;28;20183;-68
2023/05/10 09:32:55;;;;;;;0.60;0.60;;;20.20;99.90;;;;;;4976441;28;20386;-66
2023/05/10 09:35:23;;;;;;;0.30;0.30;;;20.30;99.90;;;;;;4975770;28;20470;-68
2023/05/10 09:37:50;;;;;;;0.50;0.40;;;20.40;99.90;;;;;;4976464;28;20433;-66
2023/05/10 09:40:27;;;;;;;0.40;0.40;;;20.40;99.90;;;;;;4976852;28;20422;-67
2023/05/10 09:43:01;;;;;;;0.40;0.40;;;20.40;99.90;;;;;;4976664;28;20864;-71
2023/05/10 09:45:29;;;;;;;1.73;1.60;;;20.30;99.90;;;;;;4975464;28;20423;-67
2023/05/10 09:47:55;;;;;;;1.40;1.30;;;20.40;99.90;;;;;;4958875;28;20396;-67
2023/05/10 09:50:22;;;;;;;0.40;0.40;;;20.50;99.90;;;;;;4976299;28;20378;-66
2023/05/10 09:52:52;;;;;;;0.40;0.40;;;20.50;99.90;;;;;;4976553;28;20788;-67
2023/05/10 09:55:21;;;;;;;0.40;0.30;;;20.30;99.90;;;;;;4958565;28;20434;-68
2023/05/10 09:57:48;;;;;;;0.40;0.40;;;20.20;99.90;;;;;;4976435;28;20949;-68
2023/05/10 10:00:18;;;;;;;1.17;0.40;;;20.20;99.90;;;;;;4976388;28;20410;-64
2023/05/10 10:02:53;;;;;;;0.70;0.60;;;20.40;99.90;;;;;;4976016;28;20722;-68
2023/05/10 10:05:19;;;;;;;0.40;0.40;;;20.50;99.90;;;;;;4975391;28;20398;-67
2023/05/10 10:07:45;;;;;;;0.60;0.60;;;20.40;99.90;;;;;;4976584;28;20510;-67
2023/05/10 10:10:12;;;;;;;0.30;0.30;;;20.40;99.90;;;;;;4976076;28;20177;-65
2023/05/10 10:12:39;;;;;;;0.60;0.60;;;20.40;99.90;;;;;;4990992;28;20195;-66
2023/05/10 10:15:06;;;;;;;0.50;0.50;;;20.40;99.90;;;;;;4975339;28;20402;-66
2023/05/10 10:17:35;;;;;;;0.40;0.40;;;20.20;99.90;;;;;;4975534;28;20470;-66
2023/05/10 10:20:02;;;;;;;1.63;0.60;;;20.00;99.90;;;;;;4958381;28;20419;-65
2023/05/10 10:22:27;;;;;;;0.70;0.43;;;19.60;99.90;;;;;;4975890;28;20419;-68
2023/05/10 10:24:54;;;;;;;0.50;0.50;;;19.30;99.90;;;;;;4975184;28;20502;-67
2023/05/10 10:27:28;;;;;;;0.47;0.47;;;19.10;99.90;;;;;;4975847;28;20564;-68
2023/05/10 10:30:29;;;;;;;0.50;0.50;;;18.90;99.90;;;;;;4975766;28;20407;-67
2023/05/10 10:33:16;;;;;;;0.57;0.57;;;18.70;99.90;;;;;;4975487;28;20403;-70
2023/05/10 10:35:43;;;;;;;0.80;0.80;;;18.80;99.90;;;;;;4975523;28;20408;-68
2023/05/10 10:38:09;;;;;;;0.60;0.60;;;19.10;99.90;;;;;;4975361;28;20437;-66
2023/05/10 10:40:34;;;;;;;0.50;0.50;;;19.40;99.90;;;;;;4975534;28;20383;-68
2023/05/10 10:43:27;;;;;;;1.10;0.60;;;19.50;99.90;;;;;;4958184;28;20276;-71
2023/05/10 10:46:13;;;;;;;0.70;0.70;;;19.60;99.90;;;;;;4965751;28;20208;-71
2023/05/10 10:48:39;;;;;;;0.50;0.50;;;19.40;99.90;;;;;;4975776;28;20459;-67
2023/05/10 10:51:05;;;;;;;0.57;0.57;;;19.20;99.90;;;;;;4975400;28;20374;-70
2023/05/10 10:53:30;;;;;;;0.60;0.50;;;19.00;99.90;;;;;;4974796;28;20418;-68
2023/05/10 10:56:14;;;;;;;0.40;0.40;;;19.00;99.90;;;;;;4975071;28;20657;-67
2023/05/10 10:58:40;;;;;;;0.40;0.40;;;18.90;99.90;;;;;;4974746;28;20208;-67
2023/05/10 11:01:32;;;;;;;0.40;0.40;;;18.90;99.90;;;;;;4975097;28;20387;-67
2023/05/10 11:03:58;;;;;;;1.13;0.53;;;18.90;99.90;;;;;;4974896;28;20439;-66
2023/05/10 11:06:33;;;;;;;0.80;0.60;;;19.10;99.90;;;;;;4974816;28;20525;-65
2023/05/10 11:09:10;;;;;;;0.50;0.50;;;19.10;99.90;;;;;;4989442;28;20250;-65
2023/05/10 11:11:36;;;;;;;0.30;0.30;;;19.20;99.90;;;;;;4974897;28;20875;-65
2023/05/10 11:14:06;;;;;;;0.50;0.50;;;19.40;99.90;;;;;;4974303;28;20882;-65
2023/05/10 11:16:45;;;;;;;0.40;0.30;;;19.50;99.90;;;;;;4974918;28;20416;-65
2023/05/10 11:19:12;;;;;;;0.50;0.50;;;19.40;99.90;;;;;;4974931;28;20390;-66
2023/05/10 11:21:49;;;;;;;0.30;0.30;;;19.40;99.90;;;;;;4957248;28;20406;-68
2023/05/10 11:24:17;;;;;;;0.47;0.47;;;19.40;99.90;;;;;;4974397;28;20390;-67
2023/05/10 11:26:43;;;;;;;0.43;0.43;;;19.40;99.90;;;;;;4957285;28;20954;-67
2023/05/10 11:29:09;;;;;;;0.50;0.40;;;19.20;99.90;;;;;;4974624;28;20908;-70
2023/05/10 11:31:41;;;;;;;0.30;0.30;;;19.10;99.90;;;;;;4957317;28;20476;-69
2023/05/10 11:34:07;;;;;;;0.30;0.30;;;19.00;99.90;;;;;;4956826;28;20426;-69
2023/05/10 11:36:34;;;;;;;0.43;0.43;;;18.90;99.90;;;;;;4974715;28;20486;-67
2023/05/10 11:39:00;;;;;;;0.70;0.70;;;18.90;99.90;;;;;;4974512;28;20740;-69
2023/05/10 11:41:28;;;;;;;0.50;0.50;;;18.90;99.90;;;;;;4974350;28;20416;-68
2023/05/10 11:43:55;;;;;;;0.60;0.60;;;18.90;99.90;;;;;;4974112;28;20200;-68
2023/05/10 11:46:25;;;;;;;0.47;0.47;;;18.90;99.90;;;;;;4974705;28;20435;-68
2023/05/10 11:48:54;;;;;;;0.40;0.40;;;18.90;99.90;;;;;;4974366;28;20411;-66
2023/05/10 11:51:21;;;;;;;0.70;0.70;;;18.90;99.90;;;;;;4956682;28;20444;-68
2023/05/10 11:53:46;;;;;;;0.63;0.63;;;18.90;99.90;;;;;;4974161;28;20491;-67
2023/05/10 11:56:12;;;;;;;0.77;0.50;;;18.90;99.90;;;;;;4974196;28;20873;-68
2023/05/10 11:58:39;;;;;;;0.40;0.40;;;18.90;99.90;;;;;;4974422;28;20212;-68
2023/05/10 12:01:07;;;;;;;0.50;0.50;;;18.80;99.90;;;;;;4957419;28;20172;-67
2023/05/10 12:03:33;;;;;;;0.47;0.47;;;18.70;99.90;;;;;;4974097;28;20436;-68
2023/05/10 12:06:00;;;;;;;0.70;0.70;;;18.70;99.90;;;;;;4955664;28;20486;-66
2023/05/10 12:08:28;;;;;;;0.60;0.50;;;18.60;99.90;;;;;;4953322;28;20443;-66
2023/05/10 12:11:07;;;;;;;0.77;0.77;;;18.70;99.90;;;;;;4976294;28;20414;-65
2023/05/10 12:13:39;;;;;;;0.73;0.50;;;18.60;99.90;;;;;;4975001;28;20743;-68
2023/05/10 12:16:15;;;;;;;0.60;0.60;;;18.70;99.90;;;;;;4976656;28;20431;-68
2023/05/10 12:18:42;;;;;;;0.80;0.53;;;18.60;99.90;;;;;;4976474;28;20429;-68
2023/05/10 12:21:10;;;;;;;0.90;0.50;;;18.50;99.90;;;;;;4976738;28;20404;-67
2023/05/10 12:23:36;;;;;;;0.70;0.70;;;18.50;99.90;;;;;;4976395;28;20436;-68
2023/05/10 12:26:05;;;;;;;0.70;0.70;;;18.40;99.90;;;;;;4976699;28;20394;-67
2023/05/10 12:28:32;;;;;;;0.73;0.60;;;18.40;99.90;;;;;;4976690;28;20177;-67
2023/05/10 12:30:59;;;;;;;0.60;0.60;;;18.40;99.90;;;;;;4976635;28;20433;-68
2023/05/10 12:33:24;;;;;;;0.63;0.63;;;18.50;99.90;;;;;;4976075;28;20527;-68
2023/05/10 12:35:52;;;;;;;0.50;0.47;;;18.40;99.90;;;;;;4960063;28;20431;-65
2023/05/10 12:38:36;;;;;;;0.60;0.60;;;18.30;99.90;;;;;;4977753;28;20280;-69
2023/05/10 12:41:05;;;;;;;0.50;0.50;;;18.30;99.90;;;;;;4960338;28;20919;-67
2023/05/10 12:43:31;;;;;;;0.67;0.50;;;18.30;99.90;;;;;;4977247;28;20415;-68
2023/05/10 12:45:57;;;;;;;0.67;0.67;;;18.20;99.90;;;;;;4977766;28;20477;-69
2023/05/10 12:48:23;;;;;;;0.57;0.57;;;18.30;99.90;;;;;;4977516;28;20498;-70
2023/05/10 12:50:49;;;;;;;0.50;0.50;;;18.40;99.90;;;;;;4977209;28;20192;-69
2023/05/10 12:53:15;;;;;;;0.70;0.70;;;18.50;99.90;;;;;;4977005;28;20383;-72
2023/05/10 12:55:42;;;;;;;1.83;1.73;;;18.60;99.90;;;;;;4977208;28;20188;-71
2023/05/10 12:58:07;;;;;;;0.77;0.77;;;18.60;99.90;;;;;;4976963;28;20545;-72
2023/05/10 13:00:33;;;;;;;0.50;0.50;;;18.70;99.90;;;;;;4977242;28;20494;-72
2023/05/10 13:02:59;;;;;;;0.40;0.40;;;18.90;99.90;;;;;;4976421;28;20168;-69
2023/05/10 13:05:25;;;;;;;0.50;0.50;;;19.00;99.90;;;;;;4976792;28;20191;-71
2023/05/10 13:07:50;;;;;;;0.70;0.70;;;19.10;99.90;;;;;;4977246;28;20264;-68
2023/05/10 13:10:16;;;;;;;0.97;0.90;;;19.20;99.90;;;;;;4977182;28;20575;-69
2023/05/10 13:12:42;;;;;;;0.50;0.50;;;19.20;99.90;;;;;;4992238;28;20203;-70
2023/05/10 13:15:08;;;;;;;0.40;0.40;;;19.30;99.90;;;;;;4976840;28;20402;-70
2023/05/10 13:17:33;;;;;;;0.70;0.70;;;19.20;99.90;;;;;;4977138;28;20682;-68
2023/05/10 13:19:59;;;;;;;0.70;0.60;;;19.20;99.90;;;;;;4976829;28;20477;-69
2023/05/10 13:22:25;;;;;;;0.60;0.60;;;19.20;99.70;;;;;;4959100;28;20647;-69
2023/05/10 13:24:51;;;;;;;0.60;0.50;;;19.10;99.10;;;;;;4975228;28;20435;-71
2023/05/10 13:27:17;;;;;;;0.67;0.67;;;19.00;99.60;;;;;;4976884;28;20180;-69
2023/05/10 13:29:43;;;;;;;3.33;0.60;;;18.80;98.80;;;;;;4976955;28;21006;-69
2023/05/10 13:32:08;;;;;;;0.83;0.83;;;18.60;99.30;;;;;;4976913;28;20180;-70
2023/05/10 13:34:35;;;;;;;0.80;0.80;;;18.50;99.70;;;;;;4976442;28;20276;-68
2023/05/10 13:37:01;;;;;;;1.10;1.10;;;18.30;99.60;;;;;;4976316;28;20172;-69
2023/05/10 13:39:27;;;;;;;0.60;0.60;;;18.20;99.90;;;;;;4976418;28;20423;-69
2023/05/10 13:41:53;;;;;;;1.60;0.73;;;18.20;99.90;;;;;;4976466;28;20263;-70
2023/05/10 13:44:20;;;;;;;1.37;0.70;;;18.00;99.90;;;;;;4976087;28;20518;-69
2023/05/10 13:46:46;;;;;;;0.50;0.50;;;17.90;99.90;;;;;;4976232;28;20173;-67
2023/05/10 13:49:11;;;;;;;0.60;0.60;;;17.80;99.90;;;;;;4976057;28;20786;-69
2023/05/10 13:51:37;;;;;;;0.50;0.40;;;17.70;99.90;;;;;;4976133;28;20419;-71
2023/05/10 13:54:03;;;;;;;0.60;0.60;;;17.70;99.90;;;;;;4958654;28;20172;-69
2023/05/10 13:56:28;;;;;;;1.53;0.90;;;17.80;99.90;;;;;;4975196;28;20267;-69
2023/05/10 13:58:55;;;;;;;0.73;0.67;;;17.90;99.90;;;;;;4976108;28;20246;-69
2023/05/10 14:01:21;;;;;;;0.53;0.53;;;18.00;99.90;;;;;;4976135;28;20563;-67
2023/05/10 14:03:46;;;;;;;0.50;0.50;;;18.30;99.90;;;;;;4975712;28;20390;-71
2023/05/10 14:06:12;;;;;;;0.90;0.90;;;18.50;99.90;;;;;;4975649;28;20215;-68
2023/05/10 14:08:38;;;;;;;0.40;0.40;;;18.60;99.90;;;;;;4976007;28;20238;-70
2023/05/10 14:11:03;;;;;;;0.70;0.70;;;18.80;99.90;;;;;;4976088;28;20647;-68
2023/05/10 14:13:29;;;;;;;0.77;0.53;;;18.90;99.90;;;;;;4975238;28;20184;-70
2023/05/10 14:15:55;;;;;;;0.50;0.50;;;18.70;98.40;;;;;;4976118;28;20192;-70
2023/05/10 14:18:20;;;;;;;0.50;0.50;;;18.80;99.70;;;;;;4975780;28;20242;-69
2023/05/10 14:20:46;;;;;;;0.97;0.80;;;18.70;99.90;;;;;;4976056;28;20176;-69
2023/05/10 14:23:12;;;;;;;0.50;0.50;;;18.70;99.90;;;;;;4975555;28;20530;-68
2023/05/10 14:25:41;;;;;;;0.60;0.60;;;18.80;99.90;;;;;;4975744;28;20424;-68
2023/05/10 14:28:06;;;;;;;1.10;1.00;;;18.90;99.90;;;;;;4975872;28;20173;-70
2023/05/10 14:30:33;;;;;;;0.50;0.50;;;18.90;99.90;;;;;;4975855;28;20412;-71
2023/05/10 14:33:00;;;;;;;0.90;0.60;;;18.90;99.70;;;;;;4974158;28;20267;-68
2023/05/10 14:35:27;;;;;;;0.70;0.70;;;18.90;99.50;;;;;;4974937;28;20879;-69
2023/05/10 14:37:53;;;;;;;0.70;0.70;;;18.90;99.30;;;;;;4975549;28;20452;-69
2023/05/10 14:40:18;;;;;;;0.67;0.67;;;18.90;99.90;;;;;;4975603;28;20725;-70
2023/05/10 14:42:44;;;;;;;0.80;0.70;;;18.90;99.90;;;;;;4975384;28;20173;-69
2023/05/10 14:45:11;;;;;;;0.97;0.90;;;18.90;99.40;;;;;;4974370;28;20450;-69
2023/05/10 14:47:37;;;;;;;0.67;0.67;;;19.00;99.70;;;;;;4954153;29;20269;-69
2023/05/10 14:50:03;;;;;;;0.70;0.60;;;19.10;99.50;;;;;;4956023;29;20421;-69
2023/05/10 14:52:29;;;;;;;0.63;0.63;;;19.10;99.40;;;;;;4939209;29;20184;-69
2023/05/10 14:54:55;;;;;;;1.23;0.80;;;19.10;98.50;;;;;;4947619;28;20992;-68
2023/05/10 14:57:20;;;;;;;0.60;0.60;;;19.10;98.40;;;;;;4974631;28;20200;-70
2023/05/10 14:59:46;;;;;;;0.73;0.70;;;19.10;98.40;;;;;;4975281;28;20184;-69
2023/05/10 15:02:12;;;;;;;0.70;0.70;;;19.20;98.40;;;;;;4958050;28;20512;-68
2023/05/10 15:04:37;;;;;;;0.60;0.60;;;19.20;97.80;;;;;;4956514;28;20204;-69
2023/05/10 15:07:03;;;;;;;0.40;0.40;;;19.20;98.30;;;;;;4974856;28;20475;-68
2023/05/10 15:09:29;;;;;;;1.13;0.40;;;19.10;97.70;;;;;;4975081;28;20551;-69
2023/05/10 15:11:55;;;;;;;0.50;0.50;;;19.00;97.60;;;;;;4974601;28;20420;-70
2023/05/10 15:14:23;;;;;;;0.60;0.50;;;19.10;97.40;;;;;;4974503;28;20204;-69
2023/05/10 15:16:48;;;;;;;2.33;2.20;;;19.00;98.40;;;;;;4957749;28;20796;-68
2023/05/10 15:19:14;;;;;;;1.90;1.70;;;19.00;98.20;;;;;;4974951;28;20521;-70
2023/05/10 15:21:42;;;;;;;0.57;0.57;;;19.00;98.20;;;;;;4957487;28;20180;-71
2023/05/10 15:24:09;;;;;;;0.70;0.70;;;19.00;97.90;;;;;;4956650;28;20453;-70
2023/05/10 15:26:35;;;;;;;0.60;0.60;;;19.00;97.60;;;;;;4957096;28;20428;-68
2023/05/10 15:29:00;;;;;;;0.60;0.60;;;19.00;97.80;;;;;;4974715;28;20431;-69
2023/05/10 15:31:26;;;;;;;0.50;0.50;;;19.00;98.60;;;;;;4974870;28;20203;-69
2023/05/10 15:33:58;;;;;;;0.60;0.60;;;18.90;99.40;;;;;;4974302;28;20247;-75
2023/05/10 15:36:24;;;;;;;0.67;0.67;;;18.80;99.30;;;;;;4974810;28;20403;-70
2023/05/10 15:38:50;;;;;;;0.43;0.43;;;18.80;99.30;;;;;;4974205;28;20463;-71
2023/05/10 15:41:15;;;;;;;0.60;0.60;;;18.60;98.80;;;;;;4974552;28;20164;-70
2023/05/10 15:43:41;;;;;;;0.70;0.70;;;18.50;98.90;;;;;;4956963;28;20176;-69
2023/05/10 15:46:07;;;;;;;0.83;0.80;;;18.40;99.40;;;;;;4974807;28;20199;-68
2023/05/10 15:48:32;;;;;;;0.80;0.57;;;18.40;99.70;;;;;;4974528;28;20168;-66
2023/05/10 15:50:58;;;;;;;0.73;0.73;;;18.40;99.50;;;;;;4957211;28;20172;-69
2023/05/10 15:53:24;;;;;;;0.50;0.50;;;18.30;99.90;;;;;;4973704;28;20230;-69
2023/05/10 15:55:50;;;;;;;0.60;0.60;;;18.30;99.90;;;;;;4974567;28;20203;-67
2023/05/10 15:58:16;;;;;;;0.73;0.73;;;18.30;99.90;;;;;;4974719;28;20471;-68
2023/05/10 16:00:42;;;;;;;0.87;0.87;;;18.30;99.90;;;;;;4957568;28;20404;-67
2023/05/10 16:03:07;;;;;;;1.20;1.13;;;18.30;99.90;;;;;;4973993;28;20180;-67
2023/05/10 16:05:33;;;;;;;1.20;1.10;;;18.30;99.90;;;;;;4974786;28;20187;-71
2023/05/10 16:08:00;;;;;;;1.07;0.60;;;18.30;99.90;;;;;;4974216;28;20184;-71
2023/05/10 16:10:27;;;;;;;0.70;0.70;;;18.20;99.70;;;;;;4974385;28;20432;-69
2023/05/10 16:12:54;;;;;;;0.67;0.67;;;18.10;99.40;;;;;;4956344;28;20450;-69
2023/05/10 16:15:22;;;;;;;0.63;0.63;;;18.10;99.90;;;;;;4970996;28;20440;-70
2023/05/10 16:17:48;;;;;;;0.50;0.50;;;18.10;99.90;;;;;;4956997;28;20459;-73
2023/05/10 16:20:14;;;;;;;0.70;0.70;;;18.00;99.90;;;;;;4957331;28;20414;-75
2023/05/10 16:22:40;;;;;;;0.70;0.70;;;18.00;99.90;;;;;;4974545;28;20250;-73
2023/05/10 16:25:07;;;;;;;0.80;0.80;;;18.00;99.90;;;;;;4974829;28;20199;-77
2023/05/10 16:27:39;;;;;;;0.80;0.80;;;17.90;99.90;;;;;;4974935;28;20180;-74
2023/05/10 16:30:05;;;;;;;0.60;0.60;;;17.80;99.90;;;;;;4957037;28;20760;-76
2023/05/10 16:32:31;;;;;;;0.70;0.70;;;17.80;99.90;;;;;;4974768;28;20176;-78
2023/05/10 16:34:57;;;;;;;0.60;0.60;;;17.70;99.90;;;;;;4957480;28;21041;-75
2023/05/10 16:37:23;;;;;;;0.70;0.70;;;17.60;99.90;;;;;;4975317;28;20554;-70
2023/05/10 16:39:49;;;;;;;0.50;0.50;;;17.60;99.90;;;;;;4978535;28;20378;-71
2023/05/10 16:42:14;;;;;;;0.70;0.70;;;17.50;99.90;;;;;;4963450;28;20639;-72
2023/05/10 16:44:41;;;;;;;0.60;0.60;;;17.50;99.90;;;;;;4962649;28;20196;-70
2023/05/10 16:47:07;;;;;;;0.60;0.60;;;17.50;99.90;;;;;;4979657;28;20661;-72
2023/05/10 16:49:34;;;;;;;2.50;2.30;;;17.50;99.90;;;;;;4976807;28;20415;-71
2023/05/10 16:52:01;;;;;;;1.93;1.83;;;17.50;99.90;;;;;;4975491;28;20175;-73